createdAt,value
2022-10-17T00:00:40.260Z,99.90
2022-10-17T00:03:09.816Z,99.90
2022-10-17T00:05:41.160Z,99.90
2022-10-17T00:08:09.565Z,99.90
2022-10-17T00:10:37.505Z,99.90
2022-10-17T00:13:05.646Z,99.90
2022-10-17T00:15:33.855Z,99.90
2022-10-17T00:18:01.898Z,99.90
2022-10-17T00:20:32.795Z,99.90
2022-10-17T00:23:00.685Z,99.90
2022-10-17T00:25:28.628Z,99.90
2022-10-17T00:27:56.493Z,99.90
2022-10-17T00:30:24.369Z,99.90
2022-10-17T00:32:52.324Z,99.90
2022-10-17T00:35:20.183Z,99.90
2022-10-17T00:37:49.410Z,99.90
2022-10-17T00:40:17.344Z,99.90
2022-10-17T00:42:45.213Z,99.90
2022-10-17T00:45:22.726Z,99.90
2022-10-17T00:47:55.151Z,99.90
2022-10-17T00:50:24.232Z,99.90
2022-10-17T00:52:54.022Z,99.90
2022-10-17T00:55:25.406Z,99.90
2022-10-17T00:57:54.165Z,99.90
2022-10-17T01:00:22.530Z,99.90
2022-10-17T01:02:50.437Z,99.90
2022-10-17T01:05:19.261Z,99.90
2022-10-17T01:07:48.701Z,99.90
2022-10-17T01:10:18.523Z,99.90
2022-10-17T01:13:05.297Z,99.90
2022-10-17T01:15:45.030Z,99.90
2022-10-17T01:18:23.302Z,99.90
2022-10-17T01:21:32.501Z,99.90
2022-10-17T01:24:51.483Z,99.90
2022-10-17T01:27:38.896Z,99.90
2022-10-17T01:30:36.013Z,99.90
2022-10-17T01:33:11.850Z,99.90
2022-10-17T01:35:46.306Z,99.90
2022-10-17T01:38:19.437Z,99.90
2022-10-17T01:40:51.937Z,99.90
2022-10-17T01:43:24.814Z,99.90
2022-10-17T01:45:57.204Z,99.90
2022-10-17T01:48:31.370Z,99.90
2022-10-17T01:51:04.788Z,99.90
2022-10-17T01:53:36.799Z,99.90
2022-10-17T01:56:07.911Z,99.90
2022-10-17T01:58:43.179Z,99.90
2022-10-17T02:01:13.479Z,99.90
2022-10-17T02:03:44.757Z,99.90
2022-10-17T02:06:12.529Z,99.90
2022-10-17T02:08:44.044Z,99.90
2022-10-17T02:11:15.997Z,99.90
2022-10-17T02:14:07.723Z,99.90
2022-10-17T02:16:39.651Z,99.90
2022-10-17T02:19:36.569Z,99.90
2022-10-17T02:22:15.026Z,99.90
2022-10-17T02:24:50.226Z,99.90
2022-10-17T02:27:25.181Z,99.90
2022-10-17T02:29:58.280Z,99.90
2022-10-17T02:32:35.099Z,99.90
2022-10-17T02:35:08.011Z,99.90
2022-10-17T02:37:36.710Z,99.90
2022-10-17T02:40:06.460Z,99.90
2022-10-17T02:42:34.737Z,99.90
2022-10-17T02:45:03.820Z,99.90
2022-10-17T02:47:35.949Z,99.90
2022-10-17T02:50:07.642Z,99.90
2022-10-17T02:52:38.964Z,99.90
2022-10-17T02:55:12.427Z,99.90
2022-10-17T02:57:42.849Z,99.90
2022-10-17T03:00:14.148Z,99.90
2022-10-17T03:02:44.130Z,99.90
2022-10-17T03:05:15.221Z,99.90
2022-10-17T03:07:43.017Z,99.90
2022-10-17T03:10:10.945Z,99.90
2022-10-17T03:12:38.711Z,99.90
2022-10-17T03:15:07.648Z,99.90
2022-10-17T03:17:35.470Z,99.90
2022-10-17T03:20:03.856Z,99.90
2022-10-17T03:22:33.521Z,99.90
2022-10-17T03:25:01.282Z,99.90
2022-10-17T03:27:29.250Z,99.90
2022-10-17T03:29:57.149Z,99.90
2022-10-17T03:32:24.900Z,99.90
2022-10-17T03:34:52.655Z,99.90
2022-10-17T03:37:20.378Z,99.90
2022-10-17T03:39:49.452Z,99.90
2022-10-17T03:42:17.245Z,99.90
2022-10-17T03:44:45.007Z,99.90
2022-10-17T03:47:14.257Z,99.90
2022-10-17T03:49:42.221Z,99.90
2022-10-17T03:52:12.530Z,99.90
2022-10-17T03:54:40.289Z,99.90
2022-10-17T03:57:09.388Z,99.90
2022-10-17T03:59:37.146Z,99.90
2022-10-17T04:02:04.890Z,99.90
2022-10-17T04:04:32.645Z,99.90
2022-10-17T04:07:00.404Z,99.90
2022-10-17T04:09:28.277Z,99.90
2022-10-17T04:11:56.060Z,99.90
2022-10-17T04:14:25.146Z,99.90
2022-10-17T04:16:53.773Z,99.90
2022-10-17T04:19:21.711Z,99.90
2022-10-17T04:21:49.549Z,99.90
2022-10-17T04:24:17.418Z,99.90
2022-10-17T04:26:45.237Z,99.90
2022-10-17T04:29:13.213Z,99.90
2022-10-17T04:31:42.401Z,99.90
2022-10-17T04:34:10.169Z,99.90
2022-10-17T04:36:38.969Z,99.90
2022-10-17T04:39:06.796Z,99.90
2022-10-17T04:41:34.591Z,99.90
2022-10-17T04:44:02.345Z,99.90
2022-10-17T04:46:30.324Z,99.90
2022-10-17T04:48:59.434Z,99.90
2022-10-17T04:51:27.170Z,99.90
2022-10-17T04:53:54.892Z,99.90
2022-10-17T04:56:24.564Z,99.90
2022-10-17T04:58:52.704Z,99.90
2022-10-17T05:01:22.053Z,99.90
2022-10-17T05:03:50.116Z,99.90
2022-10-17T05:06:21.237Z,99.90
2022-10-17T05:08:49.600Z,99.90
2022-10-17T05:11:19.958Z,99.90
2022-10-17T05:13:52.233Z,99.90
2022-10-17T05:16:20.044Z,99.90
2022-10-17T05:18:52.792Z,99.90
2022-10-17T05:21:23.679Z,99.90
2022-10-17T05:23:51.818Z,99.90
2022-10-17T05:26:20.820Z,99.90
2022-10-17T05:28:48.706Z,99.90
2022-10-17T05:31:16.774Z,99.90
2022-10-17T05:33:44.562Z,99.90
2022-10-17T05:36:12.376Z,99.90
2022-10-17T05:38:41.514Z,99.90
2022-10-17T05:41:10.548Z,99.90
2022-10-17T05:43:38.303Z,99.90
2022-10-17T05:46:07.008Z,99.90
2022-10-17T05:48:35.516Z,99.90
2022-10-17T05:51:05.017Z,99.90
2022-10-17T05:53:33.881Z,99.90
2022-10-17T05:56:05.321Z,99.90
2022-10-17T05:58:52.311Z,99.90
2022-10-17T06:01:22.081Z,99.90
2022-10-17T06:03:49.855Z,99.90
2022-10-17T06:06:18.789Z,99.90
2022-10-17T06:08:46.758Z,99.90
2022-10-17T06:11:15.941Z,99.90
2022-10-17T06:13:43.786Z,99.90
2022-10-17T06:16:11.545Z,99.90
2022-10-17T06:18:39.320Z,99.90
2022-10-17T06:21:09.629Z,99.90
2022-10-17T06:23:37.625Z,99.90
2022-10-17T06:26:07.500Z,99.90
2022-10-17T06:28:37.561Z,99.90
2022-10-17T06:31:07.244Z,99.90
2022-10-17T06:33:35.143Z,99.90
2022-10-17T06:36:03.065Z,99.90
2022-10-17T06:38:31.188Z,99.90
2022-10-17T06:41:04.956Z,99.90
2022-10-17T06:43:32.684Z,99.90
2022-10-17T06:46:01.818Z,99.90
2022-10-17T06:48:29.616Z,99.90
2022-10-17T06:51:00.489Z,99.90
2022-10-17T06:53:29.718Z,99.90
2022-10-17T06:56:01.268Z,99.90
2022-10-17T06:58:29.129Z,99.90
2022-10-17T07:01:01.582Z,99.90
2022-10-17T07:03:29.951Z,99.90
2022-10-17T07:05:58.129Z,99.90
2022-10-17T07:08:26.651Z,99.90
2022-10-17T07:10:54.600Z,99.90
2022-10-17T07:13:22.693Z,99.90
2022-10-17T07:15:50.506Z,99.90
2022-10-17T07:18:19.669Z,99.90
2022-10-17T07:20:54.640Z,99.90
2022-10-17T07:23:22.505Z,99.90
2022-10-17T07:25:50.268Z,99.90
2022-10-17T07:28:18.212Z,99.90
2022-10-17T07:30:49.461Z,99.90
2022-10-17T07:33:21.244Z,99.90
2022-10-17T07:35:48.978Z,99.90
2022-10-17T07:38:16.756Z,99.90
2022-10-17T07:40:44.770Z,99.90
2022-10-17T07:43:12.534Z,99.90
2022-10-17T07:45:42.097Z,99.90
2022-10-17T07:48:09.833Z,99.90
2022-10-17T07:50:38.976Z,99.90
2022-10-17T07:53:06.765Z,99.90
2022-10-17T07:55:34.533Z,99.90
2022-10-17T07:58:02.292Z,99.90
2022-10-17T08:00:30.247Z,99.90
2022-10-17T08:02:58.025Z,99.90
2022-10-17T08:05:25.860Z,99.90
2022-10-17T08:07:55.884Z,99.90
2022-10-17T08:10:27.543Z,99.90
2022-10-17T08:12:55.865Z,99.90
2022-10-17T08:15:26.795Z,99.90
2022-10-17T08:18:00.047Z,99.90
2022-10-17T08:20:28.318Z,99.90
2022-10-17T08:22:57.658Z,99.90
2022-10-17T08:25:25.466Z,99.90
2022-10-17T08:27:53.227Z,99.90
2022-10-17T08:30:21.009Z,99.90
2022-10-17T08:32:48.761Z,99.90
2022-10-17T08:35:17.303Z,99.90
2022-10-17T08:37:45.095Z,95.60
2022-10-17T08:40:20.106Z,90.40
2022-10-17T08:43:03.930Z,80.10
2022-10-17T08:45:36.604Z,71.70
2022-10-17T08:48:10.726Z,66.80
2022-10-17T08:50:44.371Z,62.30
2022-10-17T08:53:19.831Z,58.40
2022-10-17T08:55:50.709Z,56.10
2022-10-17T08:58:21.885Z,53.90
2022-10-17T09:00:58.252Z,52.40
2022-10-17T09:03:39.505Z,49.90
2022-10-17T09:06:21.485Z,50.50
2022-10-17T09:08:58.996Z,50.80
2022-10-17T09:11:43.016Z,51.40
2022-10-17T09:14:26.228Z,51.80
2022-10-17T09:17:22.997Z,52.00
2022-10-17T09:20:01.882Z,50.80
2022-10-17T09:22:37.884Z,52.00
2022-10-17T09:25:11.769Z,52.90
2022-10-17T09:27:44.157Z,53.10
2022-10-17T09:30:45.162Z,52.40
2022-10-17T09:33:28.265Z,50.70
2022-10-17T09:36:05.384Z,50.60
2022-10-17T09:38:40.556Z,49.30
2022-10-17T09:41:42.849Z,48.50
2022-10-17T09:44:16.800Z,48.20
2022-10-17T09:46:53.224Z,46.30
2022-10-17T09:49:27.882Z,46.70
2022-10-17T09:51:55.914Z,45.90
2022-10-17T09:54:27.810Z,45.50
2022-10-17T09:57:00.621Z,44.80
2022-10-17T09:59:35.113Z,45.30
2022-10-17T10:02:15.547Z,43.80
2022-10-17T10:05:05.068Z,45.00
2022-10-17T10:07:35.853Z,47.30
2022-10-17T10:10:06.993Z,47.00
2022-10-17T10:12:36.487Z,47.90
2022-10-17T10:15:32.132Z,47.80
2022-10-17T10:17:59.972Z,48.30
2022-10-17T10:20:34.502Z,50.50
2022-10-17T10:23:22.061Z,50.60
2022-10-17T10:25:53.955Z,48.90
2022-10-17T10:28:25.243Z,49.50
2022-10-17T10:30:56.376Z,49.30
2022-10-17T10:33:28.490Z,49.90
2022-10-17T10:35:59.296Z,50.80
2022-10-17T10:38:27.298Z,50.90
2022-10-17T10:40:57.127Z,52.10
2022-10-17T10:43:34.008Z,53.10
2022-10-17T10:46:06.320Z,53.90
2022-10-17T10:48:36.292Z,54.10
2022-10-17T10:51:08.216Z,53.40
2022-10-17T10:53:43.886Z,54.00
2022-10-17T10:56:17.641Z,54.00
2022-10-17T10:58:56.318Z,53.60
2022-10-17T11:01:31.003Z,50.80
2022-10-17T11:04:07.734Z,52.00
2022-10-17T11:06:38.429Z,50.40
2022-10-17T11:09:23.948Z,52.10
2022-10-17T11:11:59.564Z,52.40
2022-10-17T11:14:39.145Z,50.60
2022-10-17T11:17:18.526Z,51.80
2022-10-17T11:19:52.630Z,53.00
2022-10-17T11:22:28.195Z,54.90
2022-10-17T11:25:00.953Z,57.90
2022-10-17T11:27:30.342Z,57.80
2022-10-17T11:29:59.358Z,59.50
2022-10-17T11:32:32.618Z,60.20
2022-10-17T11:35:05.180Z,60.00
2022-10-17T11:37:40.239Z,60.30
2022-10-17T11:40:20.440Z,61.00
2022-10-17T11:42:56.924Z,60.20
2022-10-17T11:45:28.105Z,59.40
2022-10-17T11:48:02.679Z,58.10
2022-10-17T11:53:24.764Z,58.90
2022-10-17T11:55:54.862Z,58.40
2022-10-17T11:58:33.028Z,58.10
2022-10-17T12:01:10.113Z,57.60
2022-10-17T12:03:53.482Z,58.90
2022-10-17T12:06:33.157Z,59.40
2022-10-17T12:09:11.129Z,60.20
2022-10-17T12:11:50.702Z,62.30
2022-10-17T12:14:39.820Z,63.60
2022-10-17T12:17:24.410Z,62.80
2022-10-17T12:19:53.585Z,60.00
2022-10-17T12:22:25.923Z,58.40
2022-10-17T12:25:00.345Z,57.70
2022-10-17T12:27:43.433Z,55.80
2022-10-17T12:30:23.681Z,55.60
2022-10-17T12:33:06.109Z,54.90
2022-10-17T12:35:38.145Z,52.90
2022-10-17T12:38:29.676Z,51.40
2022-10-17T12:40:59.369Z,52.70
2022-10-17T12:43:55.705Z,53.30
2022-10-17T12:46:57.077Z,54.90
2022-10-17T12:49:51.189Z,54.10
2022-10-17T12:52:27.415Z,52.90
2022-10-17T12:55:10.555Z,50.90
2022-10-17T12:57:45.217Z,50.90
2022-10-17T13:00:19.974Z,50.40
2022-10-17T13:02:49.023Z,49.80
2022-10-17T13:05:20.409Z,49.40
2022-10-17T13:07:50.617Z,49.00
2022-10-17T13:10:24.458Z,49.80
2022-10-17T13:12:55.569Z,49.50
2022-10-17T13:15:23.357Z,49.30
2022-10-17T13:17:58.575Z,49.50
2022-10-17T13:20:31.465Z,50.40
2022-10-17T13:23:01.132Z,51.30
2022-10-17T13:25:29.356Z,52.00
2022-10-17T13:28:12.090Z,51.90
2022-10-17T13:30:40.216Z,50.80
2022-10-17T13:33:29.371Z,50.50
2022-10-17T13:36:01.258Z,50.70
2022-10-17T13:38:34.888Z,51.60
2022-10-17T13:41:34.419Z,50.80
2022-10-17T13:43:53.008Z,50.80
2022-10-17T13:46:37.903Z,52.30
2022-10-17T13:49:12.549Z,53.20
2022-10-17T13:51:44.701Z,53.40
2022-10-17T13:54:31.551Z,54.60
2022-10-17T13:57:00.221Z,57.10
2022-10-17T13:59:34.945Z,58.70
2022-10-17T14:02:03.103Z,61.10
2022-10-17T14:04:44.667Z,63.30
2022-10-17T14:07:27.764Z,65.30
2022-10-17T14:09:58.393Z,68.40
2022-10-17T14:12:26.275Z,70.50
2022-10-17T14:15:11.335Z,72.80
2022-10-17T14:17:40.325Z,74.00
2022-10-17T14:20:57.160Z,75.80
2022-10-17T14:23:21.520Z,77.10
2022-10-17T14:25:47.721Z,78.60
2022-10-17T14:28:18.278Z,79.70
2022-10-17T14:31:03.214Z,80.90
2022-10-17T14:33:34.599Z,81.80
2022-10-17T14:36:06.178Z,83.50
2022-10-17T14:38:35.838Z,83.90
2022-10-17T14:41:40.954Z,84.10
2022-10-17T14:44:00.540Z,84.80
2022-10-17T14:46:28.873Z,86.00
2022-10-17T14:49:03.033Z,86.00
2022-10-17T14:51:40.021Z,86.40
2022-10-17T14:54:23.008Z,87.20
2022-10-17T14:56:54.794Z,89.10
2022-10-17T14:59:52.120Z,90.10
2022-10-17T15:02:12.984Z,91.30
2022-10-17T15:04:40.746Z,92.80
2022-10-17T15:07:11.401Z,92.90
2022-10-17T15:09:39.142Z,93.40
2022-10-17T15:12:15.340Z,94.40
2022-10-17T15:14:43.244Z,94.60
2022-10-17T15:17:15.230Z,95.40
2022-10-17T15:19:43.232Z,96.20
2022-10-17T15:22:11.023Z,97.20
2022-10-17T15:24:38.786Z,98.30
2022-10-17T15:27:18.026Z,99.30
2022-10-17T15:29:46.698Z,99.90
2022-10-17T15:32:14.981Z,99.90
2022-10-17T15:34:42.919Z,99.90
2022-10-17T15:37:18.387Z,99.90
2022-10-17T15:39:52.805Z,99.90
2022-10-17T15:42:22.801Z,99.90
2022-10-17T15:44:50.735Z,99.90
2022-10-17T15:47:26.182Z,99.90
2022-10-17T15:49:55.037Z,99.90
2022-10-17T15:52:23.058Z,99.90
2022-10-17T15:54:50.998Z,99.90
2022-10-17T15:57:23.947Z,99.90
2022-10-17T15:59:53.387Z,99.90
2022-10-17T16:02:22.863Z,99.90
2022-10-17T16:04:51.542Z,99.90
2022-10-17T16:07:20.007Z,99.90
2022-10-17T16:09:48.342Z,99.90
2022-10-17T16:12:18.379Z,99.90
2022-10-17T16:14:47.544Z,99.90
2022-10-17T16:17:16.571Z,99.90
2022-10-17T16:19:44.716Z,99.90
2022-10-17T16:22:23.821Z,99.90
2022-10-17T16:24:58.102Z,99.90
2022-10-17T16:27:26.036Z,99.90
2022-10-17T16:29:55.140Z,99.90
2022-10-17T16:32:22.891Z,99.90
2022-10-17T16:34:50.627Z,99.90
2022-10-17T16:37:18.417Z,99.90
2022-10-17T16:39:49.063Z,99.90
2022-10-17T16:42:16.945Z,99.90
2022-10-17T16:44:44.767Z,99.90
2022-10-17T16:47:13.865Z,99.90
2022-10-17T16:49:44.453Z,99.90
2022-10-17T16:52:13.296Z,99.90
2022-10-17T16:54:41.103Z,99.90
2022-10-17T16:57:08.943Z,99.90
2022-10-17T16:59:36.749Z,99.90
2022-10-17T17:02:04.604Z,99.90
2022-10-17T17:04:33.820Z,99.90
2022-10-17T17:07:01.595Z,99.90
2022-10-17T17:09:29.474Z,99.90
2022-10-17T17:11:57.261Z,99.90
2022-10-17T17:14:25.004Z,99.90
2022-10-17T17:16:52.785Z,99.90
2022-10-17T17:19:20.610Z,99.90
2022-10-17T17:21:51.019Z,99.90
2022-10-17T17:24:20.878Z,99.90
2022-10-17T17:26:52.233Z,99.90
2022-10-17T17:29:20.427Z,99.90
2022-10-17T17:31:48.241Z,99.90
2022-10-17T17:34:18.109Z,99.90
2022-10-17T17:36:46.690Z,99.90
2022-10-17T17:39:16.460Z,99.90
2022-10-17T17:41:45.489Z,99.90
2022-10-17T17:44:16.683Z,99.90
2022-10-17T17:46:45.265Z,99.90
2022-10-17T17:49:13.208Z,99.90
2022-10-17T17:51:41.470Z,99.90
2022-10-17T17:54:11.364Z,99.90
2022-10-17T17:56:40.750Z,99.90
2022-10-17T17:59:08.609Z,99.90
2022-10-17T18:01:38.655Z,99.90
2022-10-17T18:04:08.469Z,99.90
2022-10-17T18:06:37.296Z,99.90
2022-10-17T18:09:06.390Z,99.90
2022-10-17T18:11:34.385Z,99.90
2022-10-17T18:14:05.197Z,99.90
2022-10-17T18:16:34.509Z,99.90
2022-10-17T18:19:06.737Z,99.90
2022-10-17T18:21:35.175Z,99.90
2022-10-17T18:24:04.398Z,99.90
2022-10-17T18:26:32.277Z,99.90
2022-10-17T18:29:00.197Z,99.90
2022-10-17T18:31:31.990Z,99.90
2022-10-17T18:34:00.923Z,99.90
2022-10-17T18:36:30.006Z,99.90
2022-10-17T18:38:59.881Z,99.90
2022-10-17T18:41:28.390Z,99.90
2022-10-17T18:43:57.479Z,99.90
2022-10-17T18:46:26.788Z,99.90
2022-10-17T18:48:56.296Z,99.90
2022-10-17T18:51:25.925Z,99.90
2022-10-17T18:53:55.276Z,99.90
2022-10-17T18:56:23.831Z,99.90
2022-10-17T18:58:52.200Z,99.90
2022-10-17T19:01:21.747Z,99.90
2022-10-17T19:03:51.649Z,99.90
2022-10-17T19:06:22.795Z,99.90
2022-10-17T19:08:51.142Z,99.90
2022-10-17T19:11:21.949Z,99.90
2022-10-17T19:13:50.610Z,99.90
2022-10-17T19:16:20.469Z,99.90
2022-10-17T19:18:50.913Z,99.90
2022-10-17T19:21:22.042Z,99.90
2022-10-17T19:23:51.376Z,99.90
2022-10-17T19:26:19.706Z,99.90
2022-10-17T19:28:47.799Z,99.90
2022-10-17T19:31:17.937Z,99.90
2022-10-17T19:33:46.212Z,99.90
2022-10-17T19:36:14.929Z,99.90
2022-10-17T19:38:44.236Z,99.90
2022-10-17T19:41:13.728Z,99.90
2022-10-17T19:43:43.099Z,99.90
2022-10-17T19:46:14.001Z,99.90
2022-10-17T19:48:41.845Z,99.90
2022-10-17T19:51:12.641Z,99.90
2022-10-17T19:53:41.333Z,99.90
2022-10-17T19:56:11.527Z,99.90
2022-10-17T19:58:44.919Z,99.90
2022-10-17T20:01:14.447Z,99.90
2022-10-17T20:03:42.247Z,99.90
2022-10-17T20:06:10.377Z,99.90
2022-10-17T20:08:38.953Z,99.90
2022-10-17T20:11:08.849Z,99.90
2022-10-17T20:13:38.521Z,99.90
2022-10-17T20:16:07.945Z,99.90
2022-10-17T20:18:35.941Z,99.90
2022-10-17T20:21:05.340Z,99.90
2022-10-17T20:23:33.239Z,99.90
2022-10-17T20:26:08.697Z,99.90
2022-10-17T20:28:48.639Z,99.90
2022-10-17T20:31:17.115Z,99.90
2022-10-17T20:33:44.882Z,99.90
2022-10-17T20:36:14.625Z,99.90
2022-10-17T20:38:42.366Z,99.90
2022-10-17T20:41:11.000Z,99.90
2022-10-17T20:43:39.003Z,99.90
2022-10-17T20:46:23.531Z,99.90
2022-10-17T20:49:02.742Z,99.90
2022-10-17T20:51:30.636Z,99.90
2022-10-17T20:53:58.445Z,99.90
2022-10-17T20:56:27.777Z,99.90
2022-10-17T20:58:57.077Z,99.90
2022-10-17T21:01:27.135Z,99.90
2022-10-17T21:03:57.065Z,99.90
2022-10-17T21:06:27.556Z,99.90
2022-10-17T21:08:56.398Z,99.90
2022-10-17T21:11:25.820Z,99.90
2022-10-17T21:13:57.343Z,99.90
2022-10-17T21:16:26.967Z,99.90
2022-10-17T21:18:55.812Z,99.90
2022-10-17T21:21:26.632Z,99.90
2022-10-17T21:23:56.028Z,99.90
2022-10-17T21:26:23.964Z,99.90
2022-10-17T21:28:51.947Z,99.90
2022-10-17T21:31:21.369Z,99.90
2022-10-17T21:33:52.829Z,99.90
2022-10-17T21:36:21.964Z,99.90
2022-10-17T21:38:51.456Z,99.90
2022-10-17T21:41:20.584Z,99.90
2022-10-17T21:43:49.052Z,99.90
2022-10-17T21:46:18.675Z,99.90
2022-10-17T21:48:47.653Z,99.90
2022-10-17T21:51:18.721Z,99.90
2022-10-17T21:53:46.828Z,99.90
2022-10-17T21:56:16.737Z,99.90
2022-10-17T21:58:45.216Z,99.90
2022-10-17T22:01:14.962Z,99.90
2022-10-17T22:03:46.680Z,99.90
2022-10-17T22:06:38.783Z,99.90
2022-10-17T22:09:08.348Z,99.90
2022-10-17T22:11:36.845Z,99.90
2022-10-17T22:14:07.453Z,99.90
2022-10-17T22:16:35.844Z,99.90
2022-10-17T22:19:06.782Z,99.90
2022-10-17T22:21:37.385Z,99.90
2022-10-17T22:24:08.146Z,99.90
2022-10-17T22:26:37.256Z,99.90
2022-10-17T22:29:05.786Z,99.90
2022-10-17T22:31:33.976Z,99.90
2022-10-17T22:34:01.740Z,99.90
2022-10-17T22:36:29.512Z,99.90
2022-10-17T22:38:58.588Z,99.90
2022-10-17T22:41:26.435Z,99.90
2022-10-17T22:43:54.185Z,99.90
2022-10-17T22:46:21.962Z,99.90
2022-10-17T22:48:49.717Z,99.90
2022-10-17T22:51:17.696Z,99.90
2022-10-17T22:53:45.762Z,99.90
2022-10-17T22:56:17.077Z,99.90
2022-10-17T22:58:45.356Z,99.90
2022-10-17T23:01:16.417Z,99.90
2022-10-17T23:03:44.272Z,99.90
2022-10-17T23:06:12.329Z,99.90
2022-10-17T23:08:40.665Z,99.90
2022-10-17T23:11:08.790Z,99.90
2022-10-17T23:13:39.643Z,99.90
2022-10-17T23:16:08.325Z,99.90
2022-10-17T23:18:36.368Z,99.90
2022-10-17T23:21:04.163Z,99.90
2022-10-17T23:23:31.932Z,99.90
2022-10-17T23:26:05.445Z,99.90
2022-10-17T23:28:35.222Z,99.90
2022-10-17T23:31:15.241Z,99.90
2022-10-17T23:33:44.733Z,99.90
2022-10-17T23:36:13.438Z,99.90
2022-10-17T23:38:41.619Z,99.90
2022-10-17T23:41:09.762Z,99.90
2022-10-17T23:43:38.014Z,99.90
2022-10-17T23:46:07.295Z,99.90
2022-10-17T23:48:40.386Z,99.90
2022-10-17T23:51:08.627Z,99.90
2022-10-17T23:53:36.647Z,99.90
2022-10-17T23:56:04.787Z,99.90
2022-10-17T23:58:32.657Z,99.90
